createdAt,value
2023-09-17T00:02:33.790Z,101632.88
2023-09-17T00:07:35.646Z,101629.97
2023-09-17T00:12:43.336Z,101618.31
2023-09-17T00:17:45.273Z,101618.91
2023-09-17T00:22:47.337Z,101625.53
2023-09-17T00:27:53.952Z,101614.28
2023-09-17T00:32:55.801Z,101624.66
2023-09-17T00:38:00.651Z,101604.47
2023-09-17T00:43:05.190Z,101612.13
2023-09-17T00:48:07.897Z,101615.44
2023-09-17T00:53:09.972Z,101614.16
2023-09-17T00:58:14.143Z,101612.72
2023-09-17T01:03:16.014Z,101603.75
2023-09-17T01:08:25.407Z,101600.41
2023-09-17T01:13:27.523Z,101603.25
2023-09-17T01:18:30.140Z,101594.94
2023-09-17T01:23:50.983Z,101600.13
2023-09-17T01:28:54.863Z,101603.94
2023-09-17T01:33:59.226Z,101613.28
2023-09-17T01:39:09.226Z,101612.22
2023-09-17T01:44:11.516Z,101614.44
2023-09-17T01:49:18.059Z,101613.56
2023-09-17T01:54:20.280Z,101606.25
2023-09-17T01:59:22.039Z,101607.84
2023-09-17T02:04:23.839Z,101599.13
2023-09-17T02:09:26.475Z,101595.56
2023-09-17T02:14:28.404Z,101597.63
2023-09-17T02:19:32.294Z,101589.88
2023-09-17T02:24:34.147Z,101591.94
2023-09-17T02:29:38.168Z,101585.25
2023-09-17T02:34:42.233Z,101584.81
2023-09-17T02:39:44.082Z,101583.75
2023-09-17T02:44:46.161Z,101581.59
2023-09-17T02:49:47.944Z,101572.28
2023-09-17T02:54:52.090Z,101569.13
2023-09-17T02:59:58.762Z,101561.44
2023-09-17T03:05:02.619Z,101572.59
2023-09-17T03:10:12.298Z,101569.25
2023-09-17T03:15:18.370Z,101576.44
2023-09-17T03:20:23.582Z,101577.84
2023-09-17T03:25:28.084Z,101573.50
2023-09-17T03:30:32.232Z,101582.75
2023-09-17T03:35:39.839Z,101585.38
2023-09-17T03:40:42.555Z,101582.09
2023-09-17T03:45:49.109Z,101567.38
2023-09-17T03:50:50.974Z,101574.59
2023-09-17T03:55:55.584Z,101571.47
2023-09-17T04:00:57.479Z,101578.44
2023-09-17T04:05:59.288Z,101581.72
2023-09-17T04:11:01.223Z,101590.44
2023-09-17T04:16:03.021Z,101585.63
2023-09-17T04:21:05.010Z,101581.66
2023-09-17T04:26:16.436Z,101594.47
2023-09-17T04:31:18.838Z,101586.97
2023-09-17T04:36:23.427Z,101594.00
2023-09-17T04:41:26.895Z,101596.16
2023-09-17T04:46:33.456Z,101601.53
2023-09-17T04:51:38.597Z,101593.16
2023-09-17T04:56:40.578Z,101600.59
2023-09-17T05:01:42.877Z,101600.81
2023-09-17T05:06:47.782Z,101606.00
2023-09-17T05:11:52.086Z,101606.63
2023-09-17T05:16:56.472Z,101603.38
2023-09-17T05:22:01.312Z,101605.31
2023-09-17T05:27:03.723Z,101607.44
2023-09-17T05:32:10.623Z,101604.16
2023-09-17T05:37:13.194Z,101609.19
2023-09-17T05:42:14.977Z,101613.81
2023-09-17T05:47:16.934Z,101609.53
2023-09-17T05:52:19.671Z,101609.78
2023-09-17T05:57:24.277Z,101609.88
2023-09-17T06:02:32.516Z,101607.88
2023-09-17T06:07:34.420Z,101609.78
2023-09-17T06:12:38.864Z,101611.34
2023-09-17T06:17:45.432Z,101605.59
2023-09-17T06:22:49.355Z,101615.03
2023-09-17T06:27:51.733Z,101608.91
2023-09-17T06:32:54.233Z,101598.16
2023-09-17T06:37:56.288Z,101604.88
2023-09-17T06:42:58.231Z,101605.34
2023-09-17T06:48:00.334Z,101600.84
2023-09-17T06:53:05.406Z,101604.41
2023-09-17T06:58:10.146Z,101602.59
2023-09-17T07:03:14.642Z,101602.44
2023-09-17T07:08:17.007Z,101602.03
2023-09-17T07:13:19.032Z,101595.47
2023-09-17T07:18:22.867Z,101602.38
2023-09-17T07:23:25.147Z,101593.28
2023-09-17T07:28:29.308Z,101602.03
2023-09-17T07:33:32.224Z,101601.84
2023-09-17T07:38:35.198Z,101603.34
2023-09-17T07:43:37.073Z,101598.78
2023-09-17T07:48:42.449Z,101589.66
2023-09-17T07:53:44.441Z,101579.03
2023-09-17T07:58:49.238Z,101582.97
2023-09-17T08:03:56.956Z,101583.56
2023-09-17T08:09:01.336Z,101582.06
2023-09-17T08:14:05.368Z,101582.88
2023-09-17T08:19:07.874Z,101583.91
2023-09-17T08:24:09.713Z,101583.91
2023-09-17T08:29:11.440Z,101591.78
2023-09-17T08:34:15.701Z,101581.81
2023-09-17T08:39:17.677Z,101585.97
2023-09-17T08:44:20.194Z,101585.34
2023-09-17T08:49:24.681Z,101591.97
2023-09-17T08:54:34.546Z,101589.50
2023-09-17T08:59:40.101Z,101577.78
2023-09-17T09:04:41.957Z,101586.31
2023-09-17T09:09:49.298Z,101578.16
2023-09-17T09:14:57.519Z,101574.31
2023-09-17T09:20:05.140Z,101564.69
2023-09-17T09:25:12.050Z,101553.84
2023-09-17T09:30:17.294Z,101546.31
2023-09-17T09:35:20.107Z,101539.34
2023-09-17T09:40:23.005Z,101544.34
2023-09-17T09:45:24.897Z,101547.31
2023-09-17T09:50:28.598Z,101535.22
2023-09-17T09:55:35.994Z,101538.31
2023-09-17T10:00:45.966Z,101524.53
2023-09-17T10:05:48.013Z,101524.81
2023-09-17T10:10:52.710Z,101520.53
2023-09-17T10:15:54.829Z,101501.81
2023-09-17T10:21:07.346Z,101490.13
2023-09-17T10:26:11.402Z,101474.47
2023-09-17T10:31:16.648Z,101475.53
2023-09-17T10:36:18.667Z,101475.09
2023-09-17T10:41:25.240Z,101461.53
2023-09-17T10:46:32.449Z,101456.59
2023-09-17T10:51:38.478Z,101466.41
2023-09-17T10:56:43.694Z,101446.75
2023-09-17T11:01:46.041Z,101446.38
2023-09-17T11:06:53.929Z,101442.88
2023-09-17T11:11:55.831Z,101445.34
2023-09-17T11:16:58.377Z,101434.13
2023-09-17T11:22:03.352Z,101435.91
2023-09-17T11:27:13.422Z,101439.00
2023-09-17T11:32:22.230Z,101434.88
2023-09-17T11:37:24.258Z,101428.38
2023-09-17T11:42:27.927Z,101422.66
2023-09-17T11:47:32.828Z,101425.66
2023-09-17T11:52:37.004Z,101422.28
2023-09-17T11:57:39.212Z,101413.59
2023-09-17T12:02:43.069Z,101416.81
2023-09-17T12:07:55.217Z,101423.69
2023-09-17T12:13:00.759Z,101423.19
2023-09-17T12:18:02.919Z,101417.06
2023-09-17T12:23:14.259Z,101412.84
2023-09-17T12:28:16.773Z,101398.22
2023-09-17T12:33:18.876Z,101402.44
2023-09-17T12:38:20.685Z,101395.72
2023-09-17T12:43:24.794Z,101385.06
2023-09-17T12:48:30.273Z,101369.16
2023-09-17T12:53:32.293Z,101354.16
2023-09-17T12:58:34.450Z,101356.00
2023-09-17T13:03:46.400Z,101350.19
2023-09-17T13:08:53.897Z,101360.41
2023-09-17T13:13:58.472Z,101357.13
2023-09-17T13:19:00.882Z,101348.22
2023-09-17T13:24:05.095Z,101348.97
2023-09-17T13:29:11.305Z,101343.69
2023-09-17T13:34:18.326Z,101337.59
2023-09-17T13:39:20.600Z,101339.59
2023-09-17T13:44:22.386Z,101340.75
2023-09-17T13:49:27.069Z,101335.31
2023-09-17T13:54:31.441Z,101336.66
2023-09-17T13:59:40.511Z,101346.13
2023-09-17T14:04:44.825Z,101350.28
2023-09-17T14:09:49.599Z,101346.00
2023-09-17T14:14:51.468Z,101340.63
2023-09-17T14:19:53.721Z,101337.78
2023-09-17T14:24:55.600Z,101340.94
2023-09-17T14:29:57.473Z,101338.50
2023-09-17T14:34:59.432Z,101322.78
2023-09-17T14:40:01.332Z,101314.44
2023-09-17T14:45:05.164Z,101317.16
2023-09-17T14:50:11.296Z,101309.50
2023-09-17T14:55:14.074Z,101295.06
2023-09-17T15:00:16.179Z,101295.44
2023-09-17T15:05:18.200Z,101298.31
2023-09-17T15:10:25.457Z,101297.66
2023-09-17T15:15:29.542Z,101302.25
2023-09-17T15:20:31.280Z,101305.66
2023-09-17T15:25:33.296Z,101294.94
2023-09-17T15:30:35.128Z,101295.63
2023-09-17T15:35:37.847Z,101301.50
2023-09-17T15:40:43.268Z,101299.03
2023-09-17T15:45:45.407Z,101282.69
2023-09-17T15:50:47.690Z,101291.78
2023-09-17T15:55:54.258Z,101275.59
2023-09-17T16:00:58.322Z,101289.03
2023-09-17T16:06:01.151Z,101280.94
2023-09-17T16:11:03.470Z,101271.53
2023-09-17T16:16:09.080Z,101276.91
2023-09-17T16:21:14.571Z,101269.06
2023-09-17T16:26:19.127Z,101269.31
2023-09-17T16:31:20.947Z,101275.56
2023-09-17T16:36:22.756Z,101277.25
2023-09-17T16:41:24.847Z,101262.47
2023-09-17T16:46:27.399Z,101273.53
2023-09-17T16:51:29.234Z,101275.94
2023-09-17T16:56:33.358Z,101262.72
2023-09-17T17:01:40.539Z,101256.78
2023-09-17T17:06:42.563Z,101263.41
2023-09-17T17:11:46.483Z,101265.69
2023-09-17T17:16:53.548Z,101269.50
2023-09-17T17:21:57.867Z,101263.06
2023-09-17T17:26:59.840Z,101258.78
2023-09-17T17:32:04.293Z,101260.78
2023-09-17T17:37:06.701Z,101258.91
2023-09-17T17:42:10.650Z,101247.06
2023-09-17T17:47:12.479Z,101242.16
2023-09-17T17:52:16.551Z,101238.78
2023-09-17T17:57:21.121Z,101233.00
2023-09-17T18:02:23.257Z,101224.00
2023-09-17T18:07:26.764Z,101224.72
2023-09-17T18:12:28.729Z,101223.56
2023-09-17T18:17:31.084Z,101223.25
2023-09-17T18:22:35.701Z,101216.25
2023-09-17T18:27:40.539Z,101205.41
2023-09-17T18:32:45.105Z,101217.97
2023-09-17T18:37:46.914Z,101218.66
2023-09-17T18:42:51.320Z,101204.88
2023-09-17T18:47:53.070Z,101212.00
2023-09-17T18:52:57.262Z,101215.91
2023-09-17T18:58:01.506Z,101216.63
2023-09-17T19:03:05.646Z,101211.56
2023-09-17T19:08:12.065Z,101214.91
2023-09-17T19:13:14.673Z,101215.03
2023-09-17T19:18:21.090Z,101214.88
2023-09-17T19:23:27.985Z,101200.72
2023-09-17T19:28:30.121Z,101198.25
2023-09-17T19:33:35.142Z,101192.34
2023-09-17T19:38:39.682Z,101190.78
2023-09-17T19:43:43.004Z,101182.88
2023-09-17T19:48:50.909Z,101180.66
2023-09-17T19:53:53.033Z,101175.22
2023-09-17T19:58:56.573Z,101168.97
2023-09-17T20:04:01.523Z,101159.63
2023-09-17T20:09:03.715Z,101155.25
2023-09-17T20:14:08.022Z,101139.78
2023-09-17T20:19:10.008Z,101132.06
2023-09-17T20:24:14.139Z,101127.69
2023-09-17T20:29:15.936Z,101131.13
2023-09-17T20:34:24.328Z,101141.19
2023-09-17T20:39:27.462Z,101146.25
2023-09-17T20:44:32.067Z,101143.78
2023-09-17T20:49:34.181Z,101142.13
2023-09-17T20:54:36.135Z,101139.91
2023-09-17T20:59:38.022Z,101134.13
2023-09-17T21:04:46.533Z,101119.63
2023-09-17T21:09:48.782Z,101113.00
2023-09-17T21:14:52.612Z,101115.34
2023-09-17T21:19:59.112Z,101114.78
2023-09-17T21:25:04.442Z,101111.69
2023-09-17T21:30:12.734Z,101109.66
2023-09-17T21:35:14.857Z,101122.09
2023-09-17T21:40:18.245Z,101115.81
2023-09-17T21:45:19.970Z,101119.59
2023-09-17T21:50:21.800Z,101127.97
2023-09-17T21:55:28.961Z,101112.50
2023-09-17T22:00:32.983Z,101125.38
2023-09-17T22:05:40.141Z,101127.72
2023-09-17T22:10:42.130Z,101125.88
2023-09-17T22:15:44.711Z,101131.75
2023-09-17T22:20:53.900Z,101126.81
2023-09-17T22:25:58.256Z,101121.59
2023-09-17T22:31:11.070Z,101112.28
2023-09-17T22:36:15.687Z,101103.44
2023-09-17T22:41:25.684Z,101095.63
2023-09-17T22:46:31.514Z,101095.75
2023-09-17T22:51:35.942Z,101088.09
2023-09-17T22:56:37.781Z,101081.72
2023-09-17T23:01:42.092Z,101082.63
2023-09-17T23:06:43.940Z,101079.00
2023-09-17T23:11:45.810Z,101064.84
2023-09-17T23:16:53.137Z,101045.50
2023-09-17T23:21:55.173Z,101040.53
2023-09-17T23:27:03.831Z,101034.03
2023-09-17T23:32:06.122Z,101027.59
2023-09-17T23:37:08.250Z,101022.16
2023-09-17T23:42:11.774Z,101022.16
2023-09-17T23:47:15.850Z,101019.19
2023-09-17T23:52:19.958Z,101025.09
2023-09-17T23:57:23.776Z,101024.13
